createdAt,value
2023-05-15T00:00:26.828Z,0.00
2023-05-15T00:00:57.255Z,0.00
2023-05-15T00:01:27.677Z,0.00
2023-05-15T00:01:58.098Z,0.00
2023-05-15T00:02:28.633Z,0.00
2023-05-15T00:02:59.095Z,0.00
2023-05-15T00:03:29.674Z,0.00
2023-05-15T00:04:00.161Z,0.00
2023-05-15T00:04:30.620Z,0.00
2023-05-15T00:05:01.077Z,0.00
2023-05-15T00:05:31.480Z,0.00
2023-05-15T00:06:01.907Z,0.00
2023-05-15T00:06:32.322Z,0.00
2023-05-15T00:07:02.756Z,0.00
2023-05-15T00:07:33.181Z,0.00
2023-05-15T00:08:03.649Z,0.00
2023-05-15T00:08:34.045Z,0.00
2023-05-15T00:09:04.480Z,0.00
2023-05-15T00:09:34.899Z,0.00
2023-05-15T00:10:05.318Z,0.00
2023-05-15T00:10:35.740Z,0.00
2023-05-15T00:11:06.158Z,0.00
2023-05-15T00:11:36.583Z,0.00
2023-05-15T00:12:07.018Z,0.00
2023-05-15T00:12:37.451Z,0.00
2023-05-15T00:13:07.876Z,0.00
2023-05-15T00:13:38.306Z,0.00
2023-05-15T00:14:08.728Z,0.00
2023-05-15T00:14:39.145Z,0.00
2023-05-15T00:15:09.565Z,0.00
2023-05-15T00:15:40.020Z,0.00
2023-05-15T00:16:10.470Z,0.00
2023-05-15T00:16:41.102Z,0.00
2023-05-15T00:17:11.579Z,0.00
2023-05-15T00:17:42.012Z,0.00
2023-05-15T00:18:12.451Z,0.00
2023-05-15T00:18:42.874Z,0.00
2023-05-15T00:19:13.338Z,0.00
2023-05-15T00:19:43.749Z,0.00
2023-05-15T00:20:14.182Z,0.00
2023-05-15T00:20:44.605Z,0.00
2023-05-15T00:21:15.030Z,0.00
2023-05-15T00:21:45.460Z,0.00
2023-05-15T00:22:15.900Z,0.00
2023-05-15T00:22:46.327Z,0.00
2023-05-15T00:23:16.771Z,0.00
2023-05-15T00:23:47.170Z,0.00
2023-05-15T00:24:17.593Z,0.00
2023-05-15T00:24:48.026Z,0.00
2023-05-15T00:25:18.441Z,0.00
2023-05-15T00:25:48.870Z,0.00
2023-05-15T00:26:19.316Z,0.00
2023-05-15T00:26:49.756Z,0.00
2023-05-15T00:27:20.169Z,0.00
2023-05-15T00:27:50.601Z,0.00
2023-05-15T00:28:21.025Z,0.00
2023-05-15T00:28:51.442Z,0.00
2023-05-15T00:29:21.866Z,0.00
2023-05-15T00:29:52.285Z,0.00
2023-05-15T00:30:22.712Z,0.00
2023-05-15T00:30:53.130Z,0.00
2023-05-15T00:31:23.611Z,0.00
2023-05-15T00:31:54.035Z,0.00
2023-05-15T00:32:24.445Z,0.00
2023-05-15T00:32:54.873Z,0.00
2023-05-15T00:33:25.282Z,0.00
2023-05-15T00:33:55.685Z,0.00
2023-05-15T00:34:26.133Z,0.00
2023-05-15T00:34:56.549Z,0.00
2023-05-15T00:35:27.175Z,0.00
2023-05-15T00:35:57.598Z,0.00
2023-05-15T00:36:28.030Z,0.00
2023-05-15T00:36:58.452Z,0.00
2023-05-15T00:37:28.871Z,0.00
2023-05-15T00:37:59.300Z,0.00
2023-05-15T00:38:29.753Z,0.00
2023-05-15T00:39:00.173Z,0.00
2023-05-15T00:39:30.579Z,0.00
2023-05-15T00:40:01.001Z,0.00
2023-05-15T00:40:31.423Z,0.00
2023-05-15T00:41:01.862Z,0.00
2023-05-15T00:41:32.288Z,0.00
2023-05-15T00:42:02.710Z,0.00
2023-05-15T00:42:33.139Z,0.00
2023-05-15T00:43:03.560Z,0.00
2023-05-15T00:43:33.981Z,0.00
2023-05-15T00:44:04.405Z,0.00
2023-05-15T00:44:34.825Z,0.00
2023-05-15T00:45:05.253Z,0.00
2023-05-15T00:45:35.702Z,0.00
2023-05-15T00:46:06.156Z,0.00
2023-05-15T00:46:36.609Z,0.00
2023-05-15T00:47:07.033Z,0.00
2023-05-15T00:47:37.487Z,0.00
2023-05-15T00:48:07.866Z,0.00
2023-05-15T00:48:38.306Z,0.00
2023-05-15T00:49:08.735Z,0.00
2023-05-15T00:49:39.159Z,0.00
2023-05-15T00:50:09.588Z,0.00
2023-05-15T00:50:40.020Z,0.00
2023-05-15T00:51:10.435Z,0.00
2023-05-15T00:51:40.861Z,0.00
2023-05-15T00:52:11.302Z,0.00
2023-05-15T00:52:41.715Z,0.00
2023-05-15T00:53:12.139Z,0.00
2023-05-15T00:53:42.657Z,0.00
2023-05-15T00:54:13.176Z,0.00
2023-05-15T00:54:43.597Z,0.00
2023-05-15T00:55:14.029Z,0.00
2023-05-15T00:55:44.452Z,0.00
2023-05-15T00:56:14.884Z,0.00
2023-05-15T00:56:45.319Z,0.00
2023-05-15T00:57:15.751Z,0.00
2023-05-15T00:57:46.175Z,0.00
2023-05-15T00:58:16.598Z,0.00
2023-05-15T00:58:47.023Z,0.00
2023-05-15T00:59:17.449Z,0.00
2023-05-15T00:59:47.868Z,0.00
2023-05-15T01:00:18.304Z,0.00
2023-05-15T01:00:48.778Z,0.00
2023-05-15T01:01:19.194Z,0.00
2023-05-15T01:01:49.582Z,0.00
2023-05-15T01:02:20.173Z,0.00
2023-05-15T01:02:50.667Z,0.00
2023-05-15T01:03:21.099Z,0.00
2023-05-15T01:03:51.504Z,0.00
2023-05-15T01:04:21.919Z,0.00
2023-05-15T01:04:52.355Z,0.00
2023-05-15T01:05:23.176Z,0.00
2023-05-15T01:05:53.807Z,0.00
2023-05-15T01:06:24.218Z,0.00
2023-05-15T01:06:54.644Z,0.00
2023-05-15T01:07:25.060Z,0.00
2023-05-15T01:07:55.484Z,0.00
2023-05-15T01:08:25.909Z,0.00
2023-05-15T01:08:56.355Z,0.00
2023-05-15T01:09:26.774Z,0.00
2023-05-15T01:09:57.220Z,0.00
2023-05-15T01:10:27.630Z,0.00
2023-05-15T01:10:58.048Z,0.00
2023-05-15T01:11:28.469Z,0.00
2023-05-15T01:11:58.892Z,0.00
2023-05-15T01:12:29.311Z,0.00
2023-05-15T01:12:59.734Z,0.00
2023-05-15T01:13:30.171Z,0.00
2023-05-15T01:14:00.593Z,0.00
2023-05-15T01:14:31.041Z,0.00
2023-05-15T01:15:01.457Z,0.00
2023-05-15T01:15:31.887Z,0.00
2023-05-15T01:16:02.303Z,0.00
2023-05-15T01:16:32.719Z,0.00
2023-05-15T01:17:03.148Z,0.00
2023-05-15T01:17:33.582Z,0.00
2023-05-15T01:18:04.040Z,0.00
2023-05-15T01:18:34.624Z,0.00
2023-05-15T01:19:05.220Z,0.00
2023-05-15T01:19:35.830Z,0.00
2023-05-15T01:20:06.317Z,0.00
2023-05-15T01:20:36.717Z,0.00
2023-05-15T01:21:07.140Z,0.00
2023-05-15T01:21:37.574Z,0.00
2023-05-15T01:22:07.989Z,0.00
2023-05-15T01:22:38.406Z,0.00
2023-05-15T01:23:08.835Z,0.00
2023-05-15T01:23:39.262Z,0.00
2023-05-15T01:24:09.730Z,0.00
2023-05-15T01:24:40.131Z,0.00
2023-05-15T01:25:10.550Z,0.00
2023-05-15T01:25:40.973Z,0.00
2023-05-15T01:26:11.404Z,0.00
2023-05-15T01:26:41.832Z,0.00
2023-05-15T01:27:12.255Z,0.00
2023-05-15T01:27:42.671Z,0.00
2023-05-15T01:28:13.104Z,0.00
2023-05-15T01:28:43.596Z,0.00
2023-05-15T01:29:13.995Z,0.00
2023-05-15T01:29:44.426Z,0.00
2023-05-15T01:30:14.900Z,0.00
2023-05-15T01:30:45.335Z,0.00
2023-05-15T01:31:15.760Z,0.00
2023-05-15T01:31:46.269Z,0.00
2023-05-15T01:32:19.032Z,0.00
2023-05-15T01:32:49.742Z,0.00
2023-05-15T01:33:20.170Z,0.00
2023-05-15T01:33:50.598Z,0.00
2023-05-15T01:34:21.044Z,0.00
2023-05-15T01:34:51.455Z,0.00
2023-05-15T01:35:21.879Z,0.00
2023-05-15T01:35:52.295Z,0.00
2023-05-15T01:36:22.726Z,0.00
2023-05-15T01:36:53.142Z,0.00
2023-05-15T01:37:23.567Z,0.00
2023-05-15T01:37:53.991Z,0.00
2023-05-15T01:38:24.439Z,0.00
2023-05-15T01:38:54.852Z,0.00
2023-05-15T01:39:25.313Z,0.00
2023-05-15T01:39:55.691Z,0.00
2023-05-15T01:40:26.111Z,0.00
2023-05-15T01:40:56.532Z,0.00
2023-05-15T01:41:26.954Z,0.00
2023-05-15T01:41:57.386Z,0.00
2023-05-15T01:42:27.813Z,0.00
2023-05-15T01:42:58.253Z,0.00
2023-05-15T01:43:28.684Z,0.00
2023-05-15T01:43:59.106Z,0.00
2023-05-15T01:44:29.530Z,0.00
2023-05-15T01:44:59.951Z,0.00
2023-05-15T01:45:30.365Z,0.00
2023-05-15T01:46:00.816Z,0.00
2023-05-15T01:46:31.515Z,0.00
2023-05-15T01:47:02.026Z,0.00
2023-05-15T01:47:32.491Z,0.00
2023-05-15T01:48:02.897Z,0.00
2023-05-15T01:48:33.311Z,0.00
2023-05-15T01:49:03.731Z,0.00
2023-05-15T01:49:34.146Z,0.00
2023-05-15T01:50:04.571Z,0.00
2023-05-15T01:50:35.011Z,0.00
2023-05-15T01:51:05.437Z,0.00
2023-05-15T01:51:35.860Z,0.00
2023-05-15T01:52:06.285Z,0.00
2023-05-15T01:52:36.718Z,0.00
2023-05-15T01:53:07.152Z,0.00
2023-05-15T01:53:37.567Z,0.00
2023-05-15T01:54:07.989Z,0.00
2023-05-15T01:54:38.442Z,0.00
2023-05-15T01:55:08.878Z,0.00
2023-05-15T01:55:39.285Z,0.00
2023-05-15T01:56:09.704Z,0.00
2023-05-15T01:56:40.122Z,0.00
2023-05-15T01:57:10.542Z,0.00
2023-05-15T01:57:40.977Z,0.00
2023-05-15T01:58:11.400Z,0.00
2023-05-15T01:58:41.848Z,0.00
2023-05-15T01:59:12.267Z,0.00
2023-05-15T01:59:42.686Z,0.00
2023-05-15T02:00:13.119Z,0.00
2023-05-15T02:00:43.553Z,0.00
2023-05-15T02:01:14.011Z,0.00
2023-05-15T02:01:44.449Z,0.00
2023-05-15T02:02:14.839Z,0.00
2023-05-15T02:02:45.311Z,0.00
2023-05-15T02:03:15.843Z,0.00
2023-05-15T02:03:46.414Z,0.00
2023-05-15T02:04:16.857Z,0.00
2023-05-15T02:04:47.281Z,0.00
2023-05-15T02:05:17.715Z,0.00
2023-05-15T02:05:48.139Z,0.00
2023-05-15T02:06:18.558Z,0.00
2023-05-15T02:06:48.983Z,0.00
2023-05-15T02:07:19.428Z,0.00
2023-05-15T02:07:49.850Z,0.00
2023-05-15T02:08:20.271Z,0.00
2023-05-15T02:08:50.725Z,0.00
2023-05-15T02:09:21.144Z,0.00
2023-05-15T02:09:51.605Z,0.00
2023-05-15T02:10:21.992Z,0.00
2023-05-15T02:10:52.421Z,0.00
2023-05-15T02:11:22.840Z,0.00
2023-05-15T02:11:53.264Z,0.00
2023-05-15T02:12:23.711Z,0.00
2023-05-15T02:12:54.134Z,0.00
2023-05-15T02:13:24.558Z,0.00
2023-05-15T02:13:54.999Z,0.00
2023-05-15T02:14:25.409Z,0.00
2023-05-15T02:14:55.837Z,0.00
2023-05-15T02:15:26.551Z,0.00
2023-05-15T02:15:57.191Z,0.00
2023-05-15T02:16:27.601Z,0.00
2023-05-15T02:16:58.048Z,0.00
2023-05-15T02:17:28.483Z,0.00
2023-05-15T02:17:58.925Z,0.00
2023-05-15T02:18:29.393Z,0.00
2023-05-15T02:18:59.815Z,0.00
2023-05-15T02:19:30.217Z,0.00
2023-05-15T02:20:00.630Z,0.00
2023-05-15T02:20:31.066Z,0.00
2023-05-15T02:21:01.486Z,0.00
2023-05-15T02:21:31.912Z,0.00
2023-05-15T02:22:02.345Z,0.00
2023-05-15T02:22:32.770Z,0.00
2023-05-15T02:23:03.186Z,0.00
2023-05-15T02:23:33.620Z,0.00
2023-05-15T02:24:04.044Z,0.00
2023-05-15T02:24:34.466Z,0.00
2023-05-15T02:25:04.907Z,0.00
2023-05-15T02:25:35.313Z,0.00
2023-05-15T02:26:05.738Z,0.00
2023-05-15T02:26:36.167Z,0.00
2023-05-15T02:27:06.662Z,0.00
2023-05-15T02:27:37.296Z,0.00
2023-05-15T02:28:07.730Z,0.00
2023-05-15T02:28:38.159Z,0.00
2023-05-15T02:29:08.579Z,0.00
2023-05-15T02:29:39.000Z,0.00
2023-05-15T02:30:09.434Z,0.00
2023-05-15T02:30:39.849Z,0.00
2023-05-15T02:31:10.280Z,0.00
2023-05-15T02:31:40.730Z,0.00
2023-05-15T02:32:11.201Z,0.00
2023-05-15T02:32:41.688Z,0.00
2023-05-15T02:33:12.076Z,0.00
2023-05-15T02:33:42.497Z,0.00
2023-05-15T02:34:12.924Z,0.00
2023-05-15T02:34:43.347Z,0.00
2023-05-15T02:35:13.763Z,0.00
2023-05-15T02:35:44.192Z,0.00
2023-05-15T02:36:14.626Z,0.00
2023-05-15T02:36:45.068Z,0.00
2023-05-15T02:37:15.487Z,0.00
2023-05-15T02:37:45.907Z,0.00
2023-05-15T02:38:16.333Z,0.00
2023-05-15T02:38:46.756Z,0.00
2023-05-15T02:39:17.173Z,0.00
2023-05-15T02:39:47.591Z,0.00
2023-05-15T02:40:18.043Z,0.00
2023-05-15T02:40:48.445Z,0.00
2023-05-15T02:41:18.892Z,0.00
2023-05-15T02:41:49.312Z,0.00
2023-05-15T02:42:19.737Z,0.00
2023-05-15T02:42:50.159Z,0.00
2023-05-15T02:43:20.589Z,0.00
2023-05-15T02:43:51.014Z,0.00
2023-05-15T02:44:21.429Z,0.00
2023-05-15T02:44:51.867Z,0.00
2023-05-15T02:45:22.327Z,0.00
2023-05-15T02:45:52.789Z,0.00
2023-05-15T02:46:23.360Z,1.00
2023-05-15T02:46:53.773Z,1.00
2023-05-15T02:47:24.219Z,1.00
2023-05-15T02:47:54.668Z,0.00
2023-05-15T02:48:25.034Z,0.00
2023-05-15T02:48:55.480Z,0.00
2023-05-15T02:49:25.891Z,0.00
2023-05-15T02:49:56.311Z,0.00
2023-05-15T02:50:26.748Z,1.00
2023-05-15T02:50:57.180Z,1.00
2023-05-15T02:51:27.607Z,1.00
2023-05-15T02:51:58.024Z,1.00
2023-05-15T02:52:28.446Z,0.00
2023-05-15T02:52:58.867Z,0.00
2023-05-15T02:53:29.296Z,1.00
2023-05-15T02:53:59.722Z,1.00
2023-05-15T02:54:30.136Z,1.00
2023-05-15T02:55:00.570Z,1.00
2023-05-15T02:55:31.028Z,1.00
2023-05-15T02:56:01.428Z,0.00
2023-05-15T02:56:31.851Z,1.00
2023-05-15T02:57:02.270Z,1.00
2023-05-15T02:57:32.707Z,1.00
2023-05-15T02:58:03.134Z,1.00
2023-05-15T02:58:33.560Z,1.00
2023-05-15T02:59:03.983Z,1.00
2023-05-15T02:59:34.439Z,1.00
2023-05-15T03:00:04.874Z,1.00
2023-05-15T03:00:35.297Z,2.00
2023-05-15T03:01:05.778Z,1.00
2023-05-15T03:01:36.210Z,1.00
2023-05-15T03:02:06.607Z,2.00
2023-05-15T03:02:37.128Z,2.00
2023-05-15T03:03:07.517Z,2.00
2023-05-15T03:03:37.925Z,2.00
2023-05-15T03:04:08.400Z,2.00
2023-05-15T03:04:38.876Z,2.00
2023-05-15T03:05:09.368Z,2.00
2023-05-15T03:05:39.800Z,2.00
2023-05-15T03:06:10.210Z,3.00
2023-05-15T03:06:40.651Z,2.00
2023-05-15T03:07:11.070Z,3.00
2023-05-15T03:07:41.502Z,2.00
2023-05-15T03:08:11.917Z,3.00
2023-05-15T03:08:42.340Z,3.00
2023-05-15T03:09:12.762Z,3.00
2023-05-15T03:09:43.194Z,4.00
2023-05-15T03:10:13.659Z,3.00
2023-05-15T03:10:44.659Z,4.00
2023-05-15T03:11:15.079Z,4.00
2023-05-15T03:11:45.508Z,4.00
2023-05-15T03:12:15.932Z,4.00
2023-05-15T03:12:46.359Z,5.00
2023-05-15T03:13:16.784Z,4.00
2023-05-15T03:13:47.200Z,5.00
2023-05-15T03:14:17.623Z,5.00
2023-05-15T03:14:48.053Z,5.00
2023-05-15T03:15:18.476Z,5.00
2023-05-15T03:15:48.897Z,6.00
2023-05-15T03:16:19.349Z,6.00
2023-05-15T03:16:49.810Z,5.00
2023-05-15T03:17:20.253Z,6.00
2023-05-15T03:17:50.702Z,6.00
2023-05-15T03:18:21.166Z,7.00
2023-05-15T03:18:51.601Z,7.00
2023-05-15T03:19:22.008Z,7.00
2023-05-15T03:19:52.432Z,7.00
2023-05-15T03:20:22.853Z,8.00
2023-05-15T03:20:53.274Z,8.00
2023-05-15T03:21:23.702Z,8.00
2023-05-15T03:21:54.119Z,8.00
2023-05-15T03:22:24.541Z,9.00
2023-05-15T03:22:54.968Z,10.00
2023-05-15T03:23:25.402Z,10.00
2023-05-15T03:23:55.837Z,10.00
2023-05-15T03:24:26.289Z,10.00
2023-05-15T03:24:56.713Z,11.00
2023-05-15T03:25:27.355Z,11.00
2023-05-15T03:25:57.992Z,11.00
2023-05-15T03:26:28.360Z,12.00
2023-05-15T03:26:58.789Z,12.00
2023-05-15T03:27:29.214Z,13.00
2023-05-15T03:27:59.646Z,13.00
2023-05-15T03:28:30.084Z,13.00
2023-05-15T03:29:00.521Z,14.00
2023-05-15T03:29:30.953Z,14.00
2023-05-15T03:30:01.368Z,15.00
2023-05-15T03:30:31.792Z,15.00
2023-05-15T03:31:02.251Z,16.00
2023-05-15T03:31:32.685Z,16.00
2023-05-15T03:32:03.102Z,17.00
2023-05-15T03:32:33.571Z,17.00
2023-05-15T03:33:04.120Z,19.00
2023-05-15T03:33:34.568Z,19.00
2023-05-15T03:34:04.996Z,19.00
2023-05-15T03:34:35.418Z,20.00
2023-05-15T03:35:05.843Z,20.00
2023-05-15T03:35:36.275Z,21.00
2023-05-15T03:36:06.691Z,21.00
2023-05-15T03:36:37.115Z,23.00
2023-05-15T03:37:07.544Z,23.00
2023-05-15T03:37:37.962Z,24.00
2023-05-15T03:38:08.377Z,24.00
2023-05-15T03:38:38.812Z,25.00
2023-05-15T03:39:09.238Z,25.00
2023-05-15T03:39:39.671Z,26.00
2023-05-15T03:40:10.099Z,27.00
2023-05-15T03:40:40.511Z,27.00
2023-05-15T03:41:10.950Z,27.00
2023-05-15T03:41:41.357Z,27.00
2023-05-15T03:42:11.779Z,29.00
2023-05-15T03:42:42.216Z,29.00
2023-05-15T03:43:12.627Z,30.00
2023-05-15T03:43:43.078Z,30.00
2023-05-15T03:44:13.493Z,30.00
2023-05-15T03:44:43.912Z,31.00
2023-05-15T03:45:14.352Z,31.00
2023-05-15T03:45:44.772Z,31.00
2023-05-15T03:46:15.694Z,33.00
2023-05-15T03:46:46.189Z,33.00
2023-05-15T03:47:16.567Z,33.00
2023-05-15T03:47:47.076Z,34.00
2023-05-15T03:48:17.476Z,34.00
2023-05-15T03:48:47.907Z,35.00
2023-05-15T03:49:18.328Z,36.00
2023-05-15T03:49:48.756Z,35.00
2023-05-15T03:50:19.183Z,36.00
2023-05-15T03:50:49.598Z,37.00
2023-05-15T03:51:20.029Z,38.00
2023-05-15T03:51:50.445Z,40.00
2023-05-15T03:52:20.870Z,40.00
2023-05-15T03:52:51.297Z,40.00
2023-05-15T03:53:21.733Z,41.00
2023-05-15T03:53:52.163Z,42.00
2023-05-15T03:54:22.576Z,43.00
2023-05-15T03:54:52.998Z,43.00
2023-05-15T03:55:23.684Z,45.00
2023-05-15T03:55:54.131Z,45.00
2023-05-15T03:56:24.662Z,46.00
2023-05-15T03:56:55.065Z,47.00
2023-05-15T03:57:25.481Z,47.00
2023-05-15T03:57:55.909Z,47.00
2023-05-15T03:58:26.339Z,48.00
2023-05-15T03:58:56.771Z,49.00
2023-05-15T03:59:27.184Z,49.00
2023-05-15T03:59:57.607Z,50.00
2023-05-15T04:00:28.093Z,51.00
2023-05-15T04:00:58.474Z,52.00
2023-05-15T04:01:28.924Z,52.00
2023-05-15T04:02:05.050Z,52.00
2023-05-15T04:02:34.720Z,54.00
2023-05-15T04:03:05.219Z,54.00
2023-05-15T04:03:35.704Z,54.00
2023-05-15T04:04:06.068Z,55.00
2023-05-15T04:04:36.490Z,56.00
2023-05-15T04:05:06.978Z,57.00
2023-05-15T04:05:37.624Z,57.00
2023-05-15T04:06:08.099Z,57.00
2023-05-15T04:06:38.522Z,59.00
2023-05-15T04:07:08.956Z,59.00
2023-05-15T04:07:39.425Z,59.00
2023-05-15T04:08:09.844Z,60.00
2023-05-15T04:08:41.496Z,61.00
2023-05-15T04:09:12.110Z,62.00
2023-05-15T04:09:42.545Z,62.00
2023-05-15T04:10:12.964Z,62.00
2023-05-15T04:10:43.385Z,63.00
2023-05-15T04:11:13.822Z,64.00
2023-05-15T04:11:44.262Z,64.00
2023-05-15T04:12:14.681Z,65.00
2023-05-15T04:12:45.102Z,65.00
2023-05-15T04:13:15.519Z,66.00
2023-05-15T04:13:45.943Z,67.00
2023-05-15T04:14:16.372Z,67.00
2023-05-15T04:14:46.793Z,68.00
2023-05-15T04:15:17.213Z,69.00
2023-05-15T04:15:47.642Z,69.00
2023-05-15T04:16:18.127Z,70.00
2023-05-15T04:16:48.553Z,70.00
2023-05-15T04:17:19.043Z,72.00
2023-05-15T04:17:49.528Z,73.00
2023-05-15T04:18:19.949Z,74.00
2023-05-15T04:18:50.406Z,76.00
2023-05-15T04:19:20.857Z,84.00
2023-05-15T04:19:51.273Z,93.00
2023-05-15T04:20:21.711Z,131.00
2023-05-15T04:20:52.138Z,147.00
2023-05-15T04:21:22.565Z,154.00
2023-05-15T04:21:52.993Z,148.00
2023-05-15T04:22:23.427Z,120.00
2023-05-15T04:22:53.887Z,113.00
2023-05-15T04:23:24.283Z,111.00
2023-05-15T04:23:54.735Z,144.00
2023-05-15T04:24:25.162Z,175.00
2023-05-15T04:24:55.582Z,195.00
2023-05-15T04:25:26.272Z,166.00
2023-05-15T04:25:56.887Z,125.00
2023-05-15T04:26:27.349Z,101.00
2023-05-15T04:26:57.874Z,101.00
2023-05-15T04:27:28.251Z,99.00
2023-05-15T04:27:58.681Z,99.00
2023-05-15T04:28:30.527Z,103.00
2023-05-15T04:29:04.377Z,122.00
2023-05-15T04:29:35.274Z,234.00
2023-05-15T04:30:05.700Z,333.00
2023-05-15T04:30:36.138Z,396.00
2023-05-15T04:31:06.561Z,360.00
2023-05-15T04:31:37.032Z,296.00
2023-05-15T04:32:07.492Z,220.00
2023-05-15T04:32:37.921Z,202.00
2023-05-15T04:33:08.530Z,178.00
2023-05-15T04:33:38.934Z,170.00
2023-05-15T04:34:09.359Z,147.00
2023-05-15T04:34:39.780Z,147.00
2023-05-15T04:35:10.490Z,146.00
2023-05-15T04:35:40.965Z,153.00
2023-05-15T04:36:11.387Z,165.00
2023-05-15T04:36:42.975Z,199.00
2023-05-15T04:37:13.491Z,283.00
2023-05-15T04:37:43.923Z,322.00
2023-05-15T04:38:14.347Z,302.00
2023-05-15T04:38:44.767Z,262.00
2023-05-15T04:39:15.197Z,200.00
2023-05-15T04:39:45.630Z,153.00
2023-05-15T04:40:16.074Z,139.00
2023-05-15T04:40:46.486Z,132.00
2023-05-15T04:41:16.937Z,130.00
2023-05-15T04:41:47.363Z,139.00
2023-05-15T04:42:17.803Z,141.00
2023-05-15T04:42:48.204Z,134.00
2023-05-15T04:43:18.634Z,126.00
2023-05-15T04:43:49.061Z,120.00
2023-05-15T04:44:19.480Z,117.00
2023-05-15T04:44:49.908Z,116.00
2023-05-15T04:45:20.333Z,118.00
2023-05-15T04:45:50.791Z,127.00
2023-05-15T04:46:21.402Z,153.00
2023-05-15T04:46:51.823Z,192.00
2023-05-15T04:47:22.272Z,203.00
2023-05-15T04:47:52.726Z,196.00
2023-05-15T04:48:23.160Z,176.00
2023-05-15T04:48:53.578Z,175.00
2023-05-15T04:49:24.004Z,175.00
2023-05-15T04:49:54.435Z,172.00
2023-05-15T04:50:25.054Z,172.00
2023-05-15T04:50:55.667Z,162.00
2023-05-15T04:51:26.078Z,163.00
2023-05-15T04:51:56.513Z,160.00
2023-05-15T04:52:26.929Z,186.00
2023-05-15T04:52:57.350Z,248.00
2023-05-15T04:53:27.782Z,270.00
2023-05-15T04:53:58.202Z,246.00
2023-05-15T04:54:28.623Z,177.00
2023-05-15T04:54:59.058Z,142.00
2023-05-15T04:55:30.107Z,132.00
2023-05-15T04:56:01.504Z,129.00
2023-05-15T04:56:31.932Z,120.00
2023-05-15T04:57:02.354Z,117.00
2023-05-15T04:57:32.814Z,118.00
2023-05-15T04:58:03.218Z,121.00
2023-05-15T04:58:33.672Z,123.00
2023-05-15T04:59:04.082Z,125.00
2023-05-15T04:59:34.494Z,123.00
2023-05-15T05:00:04.920Z,121.00
2023-05-15T05:00:35.349Z,116.00
2023-05-15T05:01:05.812Z,116.00
2023-05-15T05:01:36.258Z,116.00
2023-05-15T05:02:06.763Z,117.00
2023-05-15T05:02:37.259Z,118.00
2023-05-15T05:03:07.756Z,119.00
2023-05-15T05:03:38.220Z,119.00
2023-05-15T05:04:08.745Z,120.00
2023-05-15T05:04:39.161Z,119.00
2023-05-15T05:05:09.600Z,120.00
2023-05-15T05:05:40.025Z,121.00
2023-05-15T05:06:10.454Z,126.00
2023-05-15T05:06:40.873Z,125.00
2023-05-15T05:07:11.298Z,124.00
2023-05-15T05:07:41.726Z,125.00
2023-05-15T05:08:12.154Z,126.00
2023-05-15T05:08:42.570Z,132.00
2023-05-15T05:09:13.019Z,137.00
2023-05-15T05:09:43.452Z,142.00
2023-05-15T05:10:13.876Z,153.00
2023-05-15T05:10:44.303Z,150.00
2023-05-15T05:11:14.727Z,155.00
2023-05-15T05:11:45.151Z,171.00
2023-05-15T05:12:15.592Z,182.00
2023-05-15T05:12:46.043Z,179.00
2023-05-15T05:13:16.445Z,193.00
2023-05-15T05:13:46.865Z,228.00
2023-05-15T05:14:17.315Z,238.00
2023-05-15T05:14:47.736Z,219.00
2023-05-15T05:15:18.193Z,186.00
2023-05-15T05:15:48.742Z,124.00
2023-05-15T05:16:19.230Z,105.00
2023-05-15T05:16:49.636Z,103.00
2023-05-15T05:17:20.041Z,108.00
2023-05-15T05:17:50.531Z,128.00
2023-05-15T05:18:20.934Z,156.00
2023-05-15T05:18:51.386Z,175.00
2023-05-15T05:19:21.805Z,181.00
2023-05-15T05:19:52.226Z,165.00
2023-05-15T05:20:22.663Z,138.00
2023-05-15T05:20:53.091Z,126.00
2023-05-15T05:21:23.510Z,125.00
2023-05-15T05:21:53.932Z,146.00
2023-05-15T05:22:24.371Z,180.00
2023-05-15T05:22:54.792Z,184.00
2023-05-15T05:23:25.216Z,178.00
2023-05-15T05:23:55.641Z,166.00
2023-05-15T05:24:26.072Z,164.00
2023-05-15T05:24:56.504Z,186.00
2023-05-15T05:25:27.042Z,208.00
2023-05-15T05:25:57.522Z,231.00
2023-05-15T05:26:27.957Z,238.00
2023-05-15T05:26:58.386Z,220.00
2023-05-15T05:27:28.817Z,190.00
2023-05-15T05:27:59.269Z,171.00
2023-05-15T05:28:29.660Z,156.00
2023-05-15T05:29:00.088Z,146.00
2023-05-15T05:29:30.537Z,141.00
2023-05-15T05:30:01.013Z,148.00
2023-05-15T05:30:31.437Z,159.00
2023-05-15T05:31:02.025Z,165.00
2023-05-15T05:31:32.667Z,160.00
2023-05-15T05:32:03.082Z,151.00
2023-05-15T05:32:33.530Z,141.00
2023-05-15T05:33:03.968Z,141.00
2023-05-15T05:33:34.361Z,142.00
2023-05-15T05:34:04.790Z,144.00
2023-05-15T05:34:35.227Z,144.00
2023-05-15T05:35:05.656Z,151.00
2023-05-15T05:35:36.074Z,181.00
2023-05-15T05:36:06.571Z,237.00
2023-05-15T05:36:36.991Z,272.00
2023-05-15T05:37:07.415Z,269.00
2023-05-15T05:37:40.250Z,247.00
2023-05-15T05:38:11.443Z,233.00
2023-05-15T05:38:41.860Z,244.00
2023-05-15T05:39:12.300Z,260.00
2023-05-15T05:39:42.740Z,247.00
2023-05-15T05:40:13.172Z,217.00
2023-05-15T05:40:43.587Z,186.00
2023-05-15T05:41:14.012Z,166.00
2023-05-15T05:41:44.433Z,155.00
2023-05-15T05:42:14.868Z,150.00
2023-05-15T05:42:45.276Z,147.00
2023-05-15T05:43:15.741Z,146.00
2023-05-15T05:43:46.122Z,145.00
2023-05-15T05:44:16.580Z,144.00
2023-05-15T05:44:47.016Z,142.00
2023-05-15T05:45:17.432Z,141.00
2023-05-15T05:45:47.857Z,142.00
2023-05-15T05:46:18.326Z,143.00
2023-05-15T05:46:48.769Z,149.00
2023-05-15T05:47:19.149Z,156.00
2023-05-15T05:47:49.627Z,163.00
2023-05-15T05:48:20.097Z,164.00
2023-05-15T05:48:50.528Z,163.00
2023-05-15T05:49:20.984Z,162.00
2023-05-15T05:49:51.406Z,163.00
2023-05-15T05:50:21.830Z,165.00
2023-05-15T05:50:52.258Z,168.00
2023-05-15T05:51:22.681Z,170.00
2023-05-15T05:51:53.117Z,172.00
2023-05-15T05:52:23.549Z,175.00
2023-05-15T05:52:53.969Z,176.00
2023-05-15T05:53:24.432Z,177.00
2023-05-15T05:53:54.863Z,177.00
2023-05-15T05:54:25.288Z,178.00
2023-05-15T05:54:55.708Z,178.00
2023-05-15T05:55:26.578Z,179.00
2023-05-15T05:55:57.113Z,179.00
2023-05-15T05:56:27.567Z,180.00
2023-05-15T05:56:57.969Z,179.00
2023-05-15T05:57:28.392Z,178.00
2023-05-15T05:57:58.822Z,177.00
2023-05-15T05:58:29.276Z,178.00
2023-05-15T05:58:59.719Z,178.00
2023-05-15T05:59:30.120Z,177.00
2023-05-15T06:00:00.554Z,179.00
2023-05-15T06:00:30.993Z,180.00
2023-05-15T06:01:01.433Z,182.00
2023-05-15T06:01:31.854Z,184.00
2023-05-15T06:02:02.328Z,190.00
2023-05-15T06:02:32.832Z,195.00
2023-05-15T06:03:03.364Z,201.00
2023-05-15T06:03:33.898Z,206.00
2023-05-15T06:04:04.470Z,212.00
2023-05-15T06:04:34.961Z,216.00
2023-05-15T06:05:05.349Z,219.00
2023-05-15T06:05:35.788Z,187.00
2023-05-15T06:06:06.264Z,140.00
2023-05-15T06:06:36.693Z,149.00
2023-05-15T06:07:07.116Z,108.00
2023-05-15T06:07:37.540Z,93.00
2023-05-15T06:08:07.997Z,84.00
2023-05-15T06:08:38.445Z,82.00
2023-05-15T06:09:08.868Z,83.00
2023-05-15T06:09:39.294Z,91.00
2023-05-15T06:10:09.954Z,96.00
2023-05-15T06:10:40.393Z,194.00
2023-05-15T06:11:10.831Z,147.00
2023-05-15T06:11:41.249Z,99.00
2023-05-15T06:12:11.699Z,98.00
2023-05-15T06:12:42.129Z,103.00
2023-05-15T06:13:12.569Z,107.00
2023-05-15T06:13:43.017Z,157.00
2023-05-15T06:14:14.022Z,149.00
2023-05-15T06:14:44.846Z,253.00
2023-05-15T06:15:15.266Z,212.00
2023-05-15T06:15:45.727Z,183.00
2023-05-15T06:16:16.131Z,241.00
2023-05-15T06:16:46.545Z,170.00
2023-05-15T06:17:17.147Z,230.00
2023-05-15T06:17:47.623Z,320.00
2023-05-15T06:18:18.035Z,336.00
2023-05-15T06:18:48.468Z,287.00
2023-05-15T06:19:18.926Z,182.00
2023-05-15T06:19:49.394Z,232.00
2023-05-15T06:20:19.827Z,268.00
2023-05-15T06:20:50.250Z,263.00
2023-05-15T06:21:20.688Z,311.00
2023-05-15T06:21:51.128Z,235.00
2023-05-15T06:22:21.536Z,307.00
2023-05-15T06:22:51.973Z,312.00
2023-05-15T06:23:24.265Z,133.00
2023-05-15T06:23:54.830Z,119.00
2023-05-15T06:24:25.253Z,123.00
2023-05-15T06:24:55.727Z,235.00
2023-05-15T06:25:26.153Z,158.00
2023-05-15T06:25:56.576Z,113.00
2023-05-15T06:26:27.014Z,115.00
2023-05-15T06:26:57.478Z,147.00
2023-05-15T06:27:27.938Z,287.00
2023-05-15T06:27:58.370Z,241.00
2023-05-15T06:28:28.839Z,227.00
2023-05-15T06:28:59.297Z,124.00
2023-05-15T06:29:29.695Z,111.00
2023-05-15T06:30:00.153Z,120.00
2023-05-15T06:30:30.565Z,98.00
2023-05-15T06:31:01.081Z,94.00
2023-05-15T06:31:31.547Z,92.00
2023-05-15T06:32:01.960Z,92.00
2023-05-15T06:32:34.338Z,93.00
2023-05-15T06:33:05.052Z,96.00
2023-05-15T06:33:35.452Z,97.00
2023-05-15T06:34:05.906Z,98.00
2023-05-15T06:34:36.396Z,100.00
2023-05-15T06:35:06.807Z,104.00